Portada
METAR-TAF:

METAR-TAF

Aeroports :

Wonderboom Airport

Pretòria, Sud-àfrica

latitud: 25-39S, longitud: 028-13E, altitud: 1248 m

Observació

L'informe es va fer fa 1 hora i 10 minuts, a les 08:00 UTC
Vent 4 kt del Nord-Oest
Temperatura 22°C
Humitat 43%
Pressió 1024 hPa

METAR: FAWB 240800Z AUTO 32004KT //// // ////// 22/09 Q1024

Hora: 11:10 (09:10 UTC)

Pronòstic

L'informe es va fer fa 3 hores i 10 minuts, a les 06:00 UTC
Pronòstic vàlid del 24 a les 07 UTC al 24 a les 18 UTC
Vent 3 kt amb direcció variable
Visibilitat 10 km o més
sense núvols per sota de 1500 mi sense presència de cumulonimbus.

TAF: FAWB 240600Z 2407/2418 VRB03KT CAVOK TX28/2413Z TN19/2418Z

Observacions i pronòstics meteorològics de més de 4000 aeroports (METAR i TAF).

Les estacions disponibles són els punts grocs i vermells al mapa.

Posi el ratolí al punt desitjat per veure el nom de l'estació.

Feu clic per veure les observacions i els pronòstics meteorològics.

Per canviar el mapa: feu clic els botons verds amb una creu de color negre per apropar; al botó verd amb un guió per allunyar la imatge; o en les fletxes verdes per a mapes adjacents.


METAR-TAF: